createdAt,value
2022-11-27T00:00:07.921Z,85.80
2022-11-27T00:00:39.508Z,89.47
2022-11-27T00:01:12.440Z,90.00
2022-11-27T00:01:44.422Z,82.53
2022-11-27T00:02:16.048Z,91.40
2022-11-27T00:02:47.914Z,86.13
2022-11-27T00:03:19.569Z,81.15
2022-11-27T00:03:51.592Z,90.60
2022-11-27T00:04:23.276Z,84.28
2022-11-27T00:04:54.922Z,89.60
2022-11-27T00:05:26.535Z,89.05
2022-11-27T00:05:58.931Z,90.35
2022-11-27T00:06:31.459Z,93.57
2022-11-27T00:07:03.023Z,98.95
2022-11-27T00:07:34.728Z,98.45
2022-11-27T00:08:06.389Z,96.10
2022-11-27T00:08:38.013Z,93.13
2022-11-27T00:09:13.755Z,88.13
2022-11-27T00:09:45.406Z,85.43
2022-11-27T00:10:17.056Z,87.03
2022-11-27T00:10:48.721Z,92.18
2022-11-27T00:11:22.501Z,84.82
2022-11-27T00:11:54.080Z,86.50
2022-11-27T00:12:25.737Z,91.63
2022-11-27T00:12:57.326Z,91.28
2022-11-27T00:13:28.903Z,85.05
2022-11-27T00:14:00.893Z,84.18
2022-11-27T00:14:32.440Z,87.93
2022-11-27T00:15:04.601Z,83.53
2022-11-27T00:15:36.236Z,89.40
2022-11-27T00:16:08.744Z,83.40
2022-11-27T00:16:40.526Z,79.68
2022-11-27T00:17:12.123Z,91.47
2022-11-27T00:17:43.723Z,81.32
2022-11-27T00:18:15.389Z,87.25
2022-11-27T00:18:47.510Z,84.65
2022-11-27T00:19:19.075Z,75.13
2022-11-27T00:19:50.880Z,85.13
2022-11-27T00:20:26.068Z,82.93
2022-11-27T00:21:06.098Z,79.72
2022-11-27T00:21:38.688Z,82.78
2022-11-27T00:22:10.273Z,83.65
2022-11-27T00:22:41.907Z,80.53
2022-11-27T00:23:13.486Z,83.50
2022-11-27T00:23:45.492Z,79.40
2022-11-27T00:24:17.075Z,82.88
2022-11-27T00:24:48.646Z,80.97
2022-11-27T00:25:20.206Z,79.95
2022-11-27T00:25:54.584Z,80.28
2022-11-27T00:26:26.850Z,78.07
2022-11-27T00:26:58.501Z,74.78
2022-11-27T00:27:30.079Z,81.85
2022-11-27T00:28:01.648Z,76.75
2022-11-27T00:28:33.839Z,79.25
2022-11-27T00:29:06.544Z,81.75
2022-11-27T00:29:38.235Z,81.18
2022-11-27T00:30:10.314Z,76.93
2022-11-27T00:30:41.857Z,81.45
2022-11-27T00:31:16.699Z,79.90
2022-11-27T00:31:48.320Z,87.53
2022-11-27T00:32:19.871Z,78.90
2022-11-27T00:32:51.436Z,81.95
2022-11-27T00:33:23.013Z,78.20
2022-11-27T00:33:55.913Z,81.32
2022-11-27T00:34:27.568Z,75.53
2022-11-27T00:34:59.171Z,82.00
2022-11-27T00:35:30.754Z,74.80
2022-11-27T00:36:06.283Z,78.68
2022-11-27T00:36:39.273Z,79.47
2022-11-27T00:37:12.343Z,77.65
2022-11-27T00:37:43.891Z,73.60
2022-11-27T00:38:15.431Z,72.90
2022-11-27T00:38:47.018Z,73.40
2022-11-27T00:39:18.929Z,72.75
2022-11-27T00:39:50.513Z,75.32
2022-11-27T00:40:22.151Z,79.38
2022-11-27T00:40:53.732Z,76.65
2022-11-27T00:41:27.699Z,82.20
2022-11-27T00:41:59.448Z,80.72
2022-11-27T00:42:31.074Z,87.35
2022-11-27T00:43:02.702Z,96.85
2022-11-27T00:43:43.639Z,102.60
2022-11-27T00:44:16.398Z,110.97
2022-11-27T00:44:48.011Z,113.13
2022-11-27T00:45:19.556Z,88.82
2022-11-27T00:45:51.126Z,90.88
2022-11-27T00:46:28.726Z,89.63
2022-11-27T00:47:00.970Z,87.85
2022-11-27T00:47:32.666Z,85.40
2022-11-27T00:48:04.625Z,84.20
2022-11-27T00:48:36.502Z,83.97
2022-11-27T00:49:11.071Z,77.93
2022-11-27T00:49:42.741Z,77.70
2022-11-27T00:50:14.742Z,84.60
2022-11-27T00:50:46.279Z,81.97
2022-11-27T00:51:20.504Z,74.00
2022-11-27T00:51:52.104Z,76.25
2022-11-27T00:52:23.651Z,78.78
2022-11-27T00:52:55.211Z,82.13
2022-11-27T00:53:27.252Z,78.55
2022-11-27T00:53:59.477Z,78.70
2022-11-27T00:54:31.134Z,74.00
2022-11-27T00:55:02.758Z,77.28
2022-11-27T00:55:34.346Z,75.65
2022-11-27T00:56:06.342Z,74.82
2022-11-27T00:56:39.925Z,74.82
2022-11-27T00:57:11.838Z,74.78
2022-11-27T00:57:43.493Z,77.20
2022-11-27T00:58:15.044Z,77.63
2022-11-27T00:58:47.270Z,75.78
2022-11-27T00:59:18.857Z,75.40
2022-11-27T00:59:50.456Z,72.75
2022-11-27T01:00:23.111Z,76.15
2022-11-27T01:00:59.597Z,71.40
2022-11-27T01:01:34.063Z,75.85
2022-11-27T01:02:05.860Z,76.25
2022-11-27T01:02:37.561Z,78.78
2022-11-27T01:03:09.268Z,73.78
2022-11-27T01:03:40.847Z,76.50
2022-11-27T01:04:14.812Z,76.38
2022-11-27T01:04:47.802Z,78.65
2022-11-27T01:05:19.822Z,80.25
2022-11-27T01:05:51.730Z,76.05
2022-11-27T01:06:24.067Z,83.85
2022-11-27T01:06:55.724Z,73.72
2022-11-27T01:07:27.354Z,90.53
2022-11-27T01:07:59.015Z,88.20
2022-11-27T01:08:30.662Z,89.13
2022-11-27T01:09:03.030Z,88.75
2022-11-27T01:09:34.622Z,90.38
2022-11-27T01:10:07.043Z,90.47
2022-11-27T01:10:38.583Z,88.03
2022-11-27T01:11:20.165Z,83.25
2022-11-27T01:11:51.744Z,81.93
2022-11-27T01:12:23.308Z,77.00
2022-11-27T01:12:54.886Z,80.53
2022-11-27T01:13:29.518Z,83.25
2022-11-27T01:14:05.847Z,83.30
2022-11-27T01:14:38.904Z,79.18
2022-11-27T01:15:11.322Z,91.75
2022-11-27T01:15:42.938Z,88.97
2022-11-27T01:16:25.917Z,88.13
2022-11-27T01:16:57.530Z,84.97
2022-11-27T01:17:29.550Z,84.55
2022-11-27T01:18:01.229Z,87.40
2022-11-27T01:18:34.253Z,91.28
2022-11-27T01:19:05.895Z,90.78
2022-11-27T01:19:38.102Z,86.78
2022-11-27T01:20:10.134Z,88.35
2022-11-27T01:20:41.685Z,86.20
2022-11-27T01:21:14.572Z,90.93
2022-11-27T01:21:46.991Z,84.47
2022-11-27T01:22:18.615Z,87.20
2022-11-27T01:22:50.166Z,86.78
2022-11-27T01:23:22.485Z,87.45
2022-11-27T01:23:54.507Z,79.60
2022-11-27T01:24:26.217Z,81.65
2022-11-27T01:24:57.769Z,80.07
2022-11-27T01:25:29.384Z,82.75
2022-11-27T01:26:06.156Z,81.00
2022-11-27T01:26:37.710Z,75.28
2022-11-27T01:27:09.283Z,76.97
2022-11-27T01:27:41.806Z,76.05
2022-11-27T01:28:13.382Z,74.22
2022-11-27T01:28:45.744Z,74.93
2022-11-27T01:29:17.349Z,71.63
2022-11-27T01:29:48.902Z,69.28
2022-11-27T01:30:20.488Z,73.00
2022-11-27T01:30:52.379Z,71.90
2022-11-27T01:31:30.130Z,74.53
2022-11-27T01:32:01.862Z,75.15
2022-11-27T01:32:33.413Z,72.70
2022-11-27T01:33:05.008Z,68.47
2022-11-27T01:33:36.944Z,72.22
2022-11-27T01:34:16.425Z,72.13
2022-11-27T01:34:48.010Z,70.25
2022-11-27T01:35:19.555Z,70.05
2022-11-27T01:36:02.344Z,71.78
2022-11-27T01:36:34.699Z,70.18
2022-11-27T01:37:06.283Z,65.93
2022-11-27T01:37:37.830Z,67.10
2022-11-27T01:38:09.491Z,61.97
2022-11-27T01:38:41.577Z,59.10
2022-11-27T01:39:19.198Z,59.00
2022-11-27T01:39:50.772Z,62.10
2022-11-27T01:40:22.798Z,59.30
2022-11-27T01:41:03.475Z,58.60
2022-11-27T01:41:39.812Z,57.10
2022-11-27T01:42:11.960Z,59.05
2022-11-27T01:42:43.511Z,54.53
2022-11-27T01:43:15.974Z,59.35
2022-11-27T01:43:59.298Z,56.85
2022-11-27T01:44:30.799Z,55.72
2022-11-27T01:45:02.458Z,59.05
2022-11-27T01:45:34.003Z,56.97
2022-11-27T01:46:26.570Z,62.28
2022-11-27T01:47:12.031Z,59.65
2022-11-27T01:47:59.421Z,60.22
2022-11-27T01:48:31.563Z,58.75
2022-11-27T01:49:12.043Z,66.03
2022-11-27T01:49:50.566Z,59.20
2022-11-27T01:50:26.339Z,54.65
2022-11-27T01:50:57.957Z,60.28
2022-11-27T01:51:31.068Z,58.47
2022-11-27T01:52:07.826Z,70.75
2022-11-27T01:52:44.474Z,66.80
2022-11-27T01:53:19.471Z,63.92
2022-11-27T01:53:54.148Z,58.13
2022-11-27T01:54:29.399Z,62.85
2022-11-27T01:55:12.667Z,56.40
2022-11-27T01:55:52.240Z,65.63
2022-11-27T01:56:24.456Z,65.53
2022-11-27T01:57:01.163Z,68.72
2022-11-27T01:57:47.400Z,65.75
2022-11-27T01:58:24.180Z,67.07
2022-11-27T01:58:58.431Z,67.15
2022-11-27T01:59:30.534Z,69.50
2022-11-27T02:00:04.616Z,70.10
2022-11-27T02:01:16.706Z,79.10
2022-11-27T02:01:48.426Z,85.45
2022-11-27T02:02:20.198Z,82.07
2022-11-27T02:02:52.288Z,84.47
2022-11-27T02:03:24.085Z,82.28
2022-11-27T02:03:59.443Z,78.85
2022-11-27T02:04:31.444Z,77.90
2022-11-27T02:05:03.222Z,77.28
2022-11-27T02:05:34.951Z,74.32
2022-11-27T02:06:06.756Z,68.18
2022-11-27T02:06:38.365Z,75.88
2022-11-27T02:07:10.084Z,71.28
2022-11-27T02:07:41.947Z,77.18
2022-11-27T02:08:16.242Z,68.47
2022-11-27T02:08:47.836Z,67.60
2022-11-27T02:09:19.428Z,79.57
2022-11-27T02:09:51.219Z,69.97
2022-11-27T02:10:55.258Z,71.22
2022-11-27T02:11:50.532Z,63.58
2022-11-27T02:12:54.486Z,64.20
2022-11-27T02:13:39.676Z,60.47
2022-11-27T02:14:27.087Z,58.03
2022-11-27T02:15:10.436Z,55.90
2022-11-27T02:15:59.742Z,54.08
2022-11-27T02:16:41.536Z,54.30
2022-11-27T02:17:21.806Z,49.25
2022-11-27T02:18:01.429Z,51.03
2022-11-27T02:18:47.701Z,47.65
2022-11-27T02:19:43.930Z,49.22
2022-11-27T02:20:47.647Z,48.30
2022-11-27T02:21:43.900Z,49.97
2022-11-27T02:22:47.090Z,45.28
2022-11-27T02:23:58.739Z,45.97
2022-11-27T02:24:44.876Z,43.30
2022-11-27T02:25:28.313Z,44.67
2022-11-27T02:26:37.214Z,45.40
2022-11-27T02:27:35.556Z,46.88
2022-11-27T02:28:34.779Z,46.78
2022-11-27T02:29:19.691Z,47.50
2022-11-27T02:29:56.532Z,51.30
2022-11-27T02:30:33.487Z,56.50
2022-11-27T02:31:18.772Z,50.83
2022-11-27T02:31:59.085Z,50.25
2022-11-27T02:32:41.744Z,54.92
2022-11-27T02:33:18.508Z,50.15
2022-11-27T02:33:54.280Z,58.70
2022-11-27T02:34:31.912Z,55.72
2022-11-27T02:35:26.467Z,51.33
2022-11-27T02:36:06.485Z,52.97
2022-11-27T02:36:41.035Z,52.20
2022-11-27T02:37:26.426Z,55.05
2022-11-27T02:38:01.243Z,53.72
2022-11-27T02:38:48.697Z,57.17
2022-11-27T02:39:31.321Z,51.83
2022-11-27T02:40:05.147Z,53.15
2022-11-27T02:40:42.804Z,51.03
2022-11-27T02:41:30.560Z,53.78
2022-11-27T02:42:10.671Z,52.92
2022-11-27T02:43:06.363Z,49.03
2022-11-27T02:43:41.613Z,54.00
2022-11-27T02:44:14.228Z,52.40
2022-11-27T02:44:50.951Z,50.35
2022-11-27T02:45:28.053Z,49.20
2022-11-27T02:46:01.119Z,51.13
2022-11-27T02:46:33.592Z,49.35
2022-11-27T02:47:05.851Z,48.15
2022-11-27T02:47:40.097Z,47.33
2022-11-27T02:48:14.160Z,43.72
2022-11-27T02:48:51.987Z,45.97
2022-11-27T02:49:23.955Z,46.88
2022-11-27T02:49:57.200Z,45.67
2022-11-27T02:50:30.942Z,42.95
2022-11-27T02:51:05.515Z,44.08
2022-11-27T02:51:41.997Z,45.28
2022-11-27T02:52:17.707Z,38.38
2022-11-27T02:52:53.205Z,42.10
2022-11-27T02:53:33.615Z,44.25
2022-11-27T02:54:08.850Z,40.40
2022-11-27T02:54:42.204Z,40.95
2022-11-27T02:55:23.086Z,37.05
2022-11-27T02:55:56.937Z,39.17
2022-11-27T02:56:31.095Z,37.30
2022-11-27T02:57:04.721Z,36.97
2022-11-27T02:57:38.358Z,37.35
2022-11-27T02:58:14.520Z,34.60
2022-11-27T02:58:47.707Z,36.70
2022-11-27T02:59:22.036Z,35.40
2022-11-27T02:59:56.915Z,36.58
2022-11-27T03:00:30.217Z,33.08
2022-11-27T03:01:05.636Z,37.72
2022-11-27T03:01:42.573Z,32.50
2022-11-27T03:02:20.188Z,34.08
2022-11-27T03:03:03.247Z,35.78
2022-11-27T03:03:42.900Z,32.78
2022-11-27T03:04:20.945Z,36.60
2022-11-27T03:04:56.080Z,36.78
2022-11-27T03:05:32.883Z,36.03
2022-11-27T03:06:12.247Z,36.78
2022-11-27T03:06:52.932Z,33.97
2022-11-27T03:07:41.326Z,37.83
2022-11-27T03:08:18.898Z,34.15
2022-11-27T03:08:57.694Z,34.20
2022-11-27T03:09:36.124Z,36.90
2022-11-27T03:10:13.773Z,33.80
2022-11-27T03:11:06.043Z,37.22
2022-11-27T03:11:38.025Z,34.20
2022-11-27T03:12:11.953Z,34.33
2022-11-27T03:12:43.591Z,35.00
2022-11-27T03:13:15.203Z,37.20
2022-11-27T03:13:56.353Z,38.58
2022-11-27T03:14:28.497Z,39.53
2022-11-27T03:15:00.118Z,36.97
2022-11-27T03:15:43.979Z,38.90
2022-11-27T03:16:24.547Z,34.30
2022-11-27T03:17:18.719Z,39.13
2022-11-27T03:17:57.931Z,36.53
2022-11-27T03:18:56.612Z,37.75
2022-11-27T03:19:50.601Z,35.95
2022-11-27T03:20:37.195Z,35.60
2022-11-27T03:21:34.743Z,36.70
2022-11-27T03:22:06.335Z,36.83
2022-11-27T03:22:37.973Z,39.40
2022-11-27T03:23:09.568Z,37.92
2022-11-27T03:23:41.146Z,39.30
2022-11-27T03:24:13.021Z,36.67
2022-11-27T03:24:44.890Z,37.33
2022-11-27T03:25:16.600Z,39.63
2022-11-27T03:25:48.182Z,37.50
2022-11-27T03:26:19.851Z,36.63
2022-11-27T03:26:51.789Z,37.97
2022-11-27T03:27:29.140Z,37.03
2022-11-27T03:28:08.150Z,45.20
2022-11-27T03:28:41.296Z,31.98
2022-11-27T03:29:18.123Z,33.38
2022-11-27T03:29:59.574Z,38.60
2022-11-27T03:30:31.230Z,35.90
2022-11-27T03:31:02.906Z,35.22
2022-11-27T03:31:34.795Z,37.75
2022-11-27T03:32:07.063Z,32.60
2022-11-27T03:32:38.790Z,35.40
2022-11-27T03:33:10.717Z,33.95
2022-11-27T03:33:42.356Z,34.03
2022-11-27T03:34:14.226Z,35.13
2022-11-27T03:34:46.843Z,34.95
2022-11-27T03:35:22.024Z,33.83
2022-11-27T03:35:53.665Z,34.78
2022-11-27T03:36:25.295Z,30.73
2022-11-27T03:36:56.848Z,32.63
2022-11-27T03:37:28.577Z,35.90
2022-11-27T03:38:00.258Z,32.35
2022-11-27T03:38:31.866Z,32.53
2022-11-27T03:39:04.266Z,34.67
2022-11-27T03:39:36.515Z,32.33
2022-11-27T03:40:10.144Z,30.48
2022-11-27T03:41:10.023Z,30.48
2022-11-27T03:41:57.432Z,30.55
2022-11-27T03:42:43.765Z,30.50
2022-11-27T03:43:24.263Z,32.53
2022-11-27T03:44:05.609Z,32.67
2022-11-27T03:44:40.752Z,34.33
2022-11-27T03:45:30.594Z,33.92
2022-11-27T03:46:11.081Z,33.25
2022-11-27T03:46:42.690Z,30.08
2022-11-27T03:47:29.546Z,35.45
2022-11-27T03:48:25.562Z,34.50
2022-11-27T03:49:24.958Z,33.78
2022-11-27T03:50:08.854Z,34.70
2022-11-27T03:50:59.239Z,34.67
2022-11-27T03:51:41.757Z,33.88
2022-11-27T03:52:24.955Z,32.83
2022-11-27T03:53:17.545Z,32.97
2022-11-27T03:53:55.746Z,32.55
2022-11-27T03:54:42.526Z,32.15
2022-11-27T03:55:29.461Z,33.90
2022-11-27T03:56:12.941Z,33.65
2022-11-27T03:57:04.352Z,35.78
2022-11-27T03:57:54.584Z,34.53
2022-11-27T03:58:36.725Z,35.85
2022-11-27T03:59:27.379Z,33.50
2022-11-27T04:00:02.878Z,37.60
2022-11-27T04:00:43.719Z,36.17
2022-11-27T04:01:17.929Z,39.47
2022-11-27T04:01:49.759Z,39.30
2022-11-27T04:02:43.291Z,37.45
2022-11-27T04:03:21.009Z,37.15
2022-11-27T04:03:52.699Z,35.10
2022-11-27T04:04:24.393Z,40.28
2022-11-27T04:04:56.075Z,45.03
2022-11-27T04:05:28.012Z,40.55
2022-11-27T04:05:59.674Z,40.75
2022-11-27T04:06:31.223Z,41.25
2022-11-27T04:07:02.791Z,41.03
2022-11-27T04:07:34.439Z,40.00
2022-11-27T04:08:06.278Z,38.45
2022-11-27T04:08:39.030Z,39.20
2022-11-27T04:09:10.776Z,40.75
2022-11-27T04:09:42.327Z,38.15
2022-11-27T04:10:14.268Z,38.60
2022-11-27T04:10:46.301Z,40.30
2022-11-27T04:11:17.863Z,38.25
2022-11-27T04:11:49.403Z,37.45
2022-11-27T04:12:20.947Z,43.13
2022-11-27T04:12:52.492Z,42.70
2022-11-27T04:13:24.063Z,38.50
2022-11-27T04:13:55.674Z,39.33
2022-11-27T04:14:27.231Z,43.40
2022-11-27T04:14:58.921Z,40.38
2022-11-27T04:15:30.677Z,39.90
2022-11-27T04:16:03.237Z,40.45
2022-11-27T04:16:34.945Z,40.00
2022-11-27T04:17:06.565Z,43.03
2022-11-27T04:17:38.164Z,39.45
2022-11-27T04:18:09.825Z,38.25
2022-11-27T04:18:41.470Z,40.97
2022-11-27T04:19:13.099Z,37.55
2022-11-27T04:19:44.639Z,41.65
2022-11-27T04:20:16.337Z,44.22
2022-11-27T04:20:47.878Z,41.28
2022-11-27T04:21:19.567Z,42.70
2022-11-27T04:21:51.161Z,40.03
2022-11-27T04:22:22.894Z,39.85
2022-11-27T04:22:54.499Z,37.17
2022-11-27T04:23:26.121Z,43.78
2022-11-27T04:23:57.701Z,37.88
2022-11-27T04:24:29.311Z,40.08
2022-11-27T04:25:00.863Z,40.83
2022-11-27T04:25:32.817Z,40.00
2022-11-27T04:26:05.114Z,38.10
2022-11-27T04:26:36.719Z,36.50
2022-11-27T04:27:08.322Z,37.83
2022-11-27T04:27:39.894Z,37.22
2022-11-27T04:28:11.564Z,38.65
2022-11-27T04:28:43.177Z,36.97
2022-11-27T04:29:14.863Z,40.28
2022-11-27T04:29:46.416Z,38.30
2022-11-27T04:30:18.558Z,36.10
2022-11-27T04:30:54.793Z,39.45
2022-11-27T04:31:26.500Z,36.78
2022-11-27T04:31:58.171Z,38.88
2022-11-27T04:32:29.798Z,36.00
2022-11-27T04:33:01.397Z,36.90
2022-11-27T04:33:33.154Z,36.95
2022-11-27T04:34:04.754Z,35.70
2022-11-27T04:34:36.370Z,36.58
2022-11-27T04:35:08.356Z,37.63
2022-11-27T04:35:39.908Z,33.10
2022-11-27T04:36:11.486Z,38.65
2022-11-27T04:36:43.130Z,37.38
2022-11-27T04:37:14.734Z,36.90
2022-11-27T04:37:46.375Z,36.53
2022-11-27T04:38:19.720Z,37.20
2022-11-27T04:38:51.283Z,39.33
2022-11-27T04:39:22.876Z,37.95
2022-11-27T04:39:54.459Z,38.90
2022-11-27T04:40:26.263Z,37.72
2022-11-27T04:40:58.061Z,37.28
2022-11-27T04:41:29.933Z,36.40
2022-11-27T04:42:01.575Z,34.85
2022-11-27T04:42:33.198Z,35.17
2022-11-27T04:43:04.746Z,38.72
2022-11-27T04:43:36.287Z,36.53
2022-11-27T04:44:07.888Z,38.20
2022-11-27T04:44:39.665Z,40.85
2022-11-27T04:45:11.422Z,45.80
2022-11-27T04:45:44.410Z,44.50
2022-11-27T04:46:16.022Z,49.55
2022-11-27T04:46:47.610Z,46.65
2022-11-27T04:47:19.203Z,44.97
2022-11-27T04:47:50.802Z,40.53
2022-11-27T04:48:22.414Z,40.30
2022-11-27T04:48:53.966Z,40.53
2022-11-27T04:49:25.582Z,39.78
2022-11-27T04:49:57.162Z,38.25
2022-11-27T04:50:28.774Z,40.17
2022-11-27T04:51:00.346Z,39.22
2022-11-27T04:51:31.943Z,39.70
2022-11-27T04:52:03.843Z,39.63
2022-11-27T04:52:35.436Z,41.95
2022-11-27T04:53:07.035Z,40.20
2022-11-27T04:53:38.571Z,40.95
2022-11-27T04:54:10.206Z,39.20
2022-11-27T04:54:41.956Z,41.08
2022-11-27T04:55:13.694Z,40.10
2022-11-27T04:55:45.270Z,39.75
2022-11-27T04:56:16.894Z,39.72
2022-11-27T04:56:48.447Z,37.05
2022-11-27T04:57:20.099Z,40.13
2022-11-27T04:57:51.682Z,41.35
2022-11-27T04:58:23.376Z,38.35
2022-11-27T04:58:54.930Z,40.15
2022-11-27T04:59:26.531Z,37.78
2022-11-27T04:59:58.114Z,39.50
2022-11-27T05:00:29.716Z,41.03
2022-11-27T05:01:01.606Z,44.25
2022-11-27T05:01:33.343Z,38.83
2022-11-27T05:02:04.958Z,40.65
2022-11-27T05:02:36.682Z,35.67
2022-11-27T05:03:08.441Z,38.42
2022-11-27T05:03:40.314Z,41.22
2022-11-27T05:04:11.907Z,37.70
2022-11-27T05:04:43.501Z,38.95
2022-11-27T05:05:15.139Z,38.05
2022-11-27T05:05:55.235Z,41.15
2022-11-27T05:06:27.010Z,39.30
2022-11-27T05:06:58.666Z,40.70
2022-11-27T05:07:30.372Z,37.90
2022-11-27T05:08:02.091Z,42.90
2022-11-27T05:08:34.099Z,39.33
2022-11-27T05:09:05.697Z,40.22
2022-11-27T05:09:37.313Z,42.65
2022-11-27T05:10:09.254Z,40.33
2022-11-27T05:10:40.791Z,39.75
2022-11-27T05:11:14.390Z,39.85
2022-11-27T05:11:46.297Z,41.33
2022-11-27T05:12:18.050Z,39.17
2022-11-27T05:12:49.672Z,40.55
2022-11-27T05:13:21.258Z,36.95
2022-11-27T05:14:11.817Z,39.13
2022-11-27T05:14:43.425Z,41.85
2022-11-27T05:15:15.025Z,37.38
2022-11-27T05:15:46.630Z,42.33
2022-11-27T05:16:18.275Z,38.75
2022-11-27T05:16:52.084Z,40.08
2022-11-27T05:17:23.671Z,36.28
2022-11-27T05:17:55.238Z,41.20
2022-11-27T05:18:27.326Z,41.35
2022-11-27T05:18:58.903Z,40.03
2022-11-27T05:19:31.898Z,43.22
2022-11-27T05:20:03.858Z,40.67
2022-11-27T05:20:35.449Z,43.65
2022-11-27T05:21:08.429Z,39.20
2022-11-27T05:21:40.933Z,44.65
2022-11-27T05:22:12.585Z,43.65
2022-11-27T05:22:45.128Z,41.10
2022-11-27T05:23:16.685Z,43.10
2022-11-27T05:23:48.279Z,40.72
2022-11-27T05:24:22.698Z,40.45
2022-11-27T05:24:54.326Z,44.30
2022-11-27T05:25:25.914Z,42.45
2022-11-27T05:25:57.858Z,40.70
2022-11-27T05:26:29.479Z,39.33
2022-11-27T05:27:01.078Z,43.50
2022-11-27T05:27:32.640Z,40.00
2022-11-27T05:28:04.461Z,41.92
2022-11-27T05:28:36.002Z,43.78
2022-11-27T05:29:09.149Z,42.08
2022-11-27T05:29:40.772Z,41.53
2022-11-27T05:30:12.564Z,37.85
2022-11-27T05:30:44.440Z,43.88
2022-11-27T05:31:16.057Z,42.03
2022-11-27T05:31:47.870Z,40.38
2022-11-27T05:32:19.602Z,39.03
2022-11-27T05:32:51.138Z,40.60
2022-11-27T05:33:22.814Z,40.92
2022-11-27T05:33:54.513Z,38.33
2022-11-27T05:34:26.107Z,41.70
2022-11-27T05:34:57.650Z,39.67
2022-11-27T05:35:29.262Z,40.08
2022-11-27T05:36:00.858Z,41.58
2022-11-27T05:36:33.347Z,39.90
2022-11-27T05:37:04.946Z,37.80
2022-11-27T05:37:36.530Z,38.80
2022-11-27T05:38:08.130Z,38.47
2022-11-27T05:38:40.398Z,37.42
2022-11-27T05:39:12.786Z,38.72
2022-11-27T05:39:44.378Z,37.63
2022-11-27T05:40:16.038Z,39.30
2022-11-27T05:40:48.472Z,40.50
2022-11-27T05:41:20.178Z,37.70
2022-11-27T05:41:51.727Z,37.85
2022-11-27T05:42:23.318Z,39.17
2022-11-27T05:42:54.882Z,36.88
2022-11-27T05:43:26.470Z,39.63
2022-11-27T05:43:58.078Z,37.78
2022-11-27T05:44:29.695Z,37.15
2022-11-27T05:45:01.261Z,40.17
2022-11-27T05:45:32.816Z,37.00
2022-11-27T05:46:08.832Z,38.97
2022-11-27T05:46:43.591Z,40.55
2022-11-27T05:47:15.334Z,37.10
2022-11-27T05:47:46.919Z,37.80
2022-11-27T05:48:18.562Z,38.13
2022-11-27T05:48:50.654Z,35.17
2022-11-27T05:49:22.223Z,34.70
2022-11-27T05:49:53.878Z,33.53
2022-11-27T05:50:25.514Z,33.42
2022-11-27T05:50:57.578Z,33.25
2022-11-27T05:51:29.179Z,34.65
2022-11-27T05:52:00.773Z,31.75
2022-11-27T05:52:32.355Z,35.15
2022-11-27T05:53:03.955Z,35.15
2022-11-27T05:53:35.594Z,36.95
2022-11-27T05:54:07.451Z,35.53
2022-11-27T05:54:39.319Z,39.72
2022-11-27T05:55:11.091Z,37.30
2022-11-27T05:55:42.632Z,38.05
2022-11-27T05:56:16.736Z,40.78
2022-11-27T05:56:48.411Z,35.83
2022-11-27T05:57:19.972Z,39.60
2022-11-27T05:57:51.518Z,39.35
2022-11-27T05:58:23.062Z,39.97
2022-11-27T05:58:54.696Z,37.90
2022-11-27T05:59:26.279Z,38.50
2022-11-27T05:59:58.482Z,42.80
2022-11-27T06:00:30.079Z,41.65
2022-11-27T06:01:02.515Z,41.78
2022-11-27T06:01:34.098Z,45.22
2022-11-27T06:02:05.817Z,39.63
2022-11-27T06:02:37.578Z,40.70
2022-11-27T06:03:09.271Z,38.88
2022-11-27T06:03:40.936Z,38.75
2022-11-27T06:04:12.586Z,40.28
2022-11-27T06:04:44.254Z,36.88
2022-11-27T06:05:15.834Z,39.38
2022-11-27T06:05:47.412Z,38.95
2022-11-27T06:06:20.474Z,38.17
2022-11-27T06:06:52.026Z,35.47
2022-11-27T06:07:23.688Z,40.22
2022-11-27T06:07:55.388Z,35.42
2022-11-27T06:08:26.987Z,38.83
2022-11-27T06:08:58.582Z,37.60
2022-11-27T06:09:30.182Z,41.08
2022-11-27T06:10:01.907Z,38.70
2022-11-27T06:10:33.826Z,37.40
2022-11-27T06:11:14.334Z,40.72
2022-11-27T06:11:45.879Z,39.03
2022-11-27T06:12:17.482Z,37.50
2022-11-27T06:12:49.055Z,36.65
2022-11-27T06:13:20.631Z,36.63
2022-11-27T06:13:52.202Z,38.15
2022-11-27T06:14:23.854Z,41.05
2022-11-27T06:14:55.434Z,39.20
2022-11-27T06:15:26.990Z,40.42
2022-11-27T06:15:58.553Z,38.55
2022-11-27T06:16:30.148Z,41.38
2022-11-27T06:17:04.858Z,36.65
2022-11-27T06:17:36.437Z,36.03
2022-11-27T06:18:08.518Z,38.60
2022-11-27T06:18:40.142Z,39.08
2022-11-27T06:19:11.738Z,37.95
2022-11-27T06:19:43.369Z,42.85
2022-11-27T06:20:15.046Z,40.10
2022-11-27T06:20:52.799Z,46.60
2022-11-27T06:21:24.990Z,46.00
2022-11-27T06:21:56.677Z,44.97
2022-11-27T06:22:28.548Z,43.53
2022-11-27T06:23:00.089Z,42.63
2022-11-27T06:23:31.706Z,48.67
2022-11-27T06:24:03.416Z,43.28
2022-11-27T06:24:35.089Z,38.85
2022-11-27T06:25:06.944Z,38.60
2022-11-27T06:25:38.489Z,38.60
2022-11-27T06:26:17.958Z,37.55
2022-11-27T06:26:49.539Z,39.00
2022-11-27T06:27:21.107Z,43.20
2022-11-27T06:27:52.980Z,40.65
2022-11-27T06:28:24.571Z,46.22
2022-11-27T06:28:58.232Z,40.80
2022-11-27T06:29:29.808Z,39.20
2022-11-27T06:30:02.290Z,44.83
2022-11-27T06:30:33.865Z,42.78
2022-11-27T06:31:16.005Z,40.88
2022-11-27T06:31:49.377Z,41.38
2022-11-27T06:32:20.973Z,39.38
2022-11-27T06:32:52.579Z,40.90
2022-11-27T06:33:24.159Z,43.97
2022-11-27T06:33:56.804Z,39.53
2022-11-27T06:34:28.333Z,41.30
2022-11-27T06:34:59.895Z,38.28
2022-11-27T06:35:32.099Z,34.33
2022-11-27T06:36:04.926Z,42.30
2022-11-27T06:36:40.762Z,38.25
2022-11-27T06:37:13.515Z,38.63
2022-11-27T06:37:45.254Z,37.25
2022-11-27T06:38:16.879Z,39.30
2022-11-27T06:38:48.608Z,36.80
2022-11-27T06:39:20.156Z,36.25
2022-11-27T06:39:51.724Z,39.15
2022-11-27T06:40:23.438Z,40.35
2022-11-27T06:40:55.131Z,35.25
2022-11-27T06:41:28.157Z,35.15
2022-11-27T06:41:59.660Z,36.85
2022-11-27T06:42:31.693Z,34.67
2022-11-27T06:43:03.278Z,36.47
2022-11-27T06:43:35.224Z,35.47
2022-11-27T06:44:06.923Z,34.15
2022-11-27T06:44:38.720Z,35.63
2022-11-27T06:45:11.106Z,33.80
2022-11-27T06:45:42.720Z,33.78
2022-11-27T06:46:17.151Z,37.75
2022-11-27T06:46:48.765Z,34.08
2022-11-27T06:47:20.336Z,40.60
2022-11-27T06:47:51.874Z,40.38
2022-11-27T06:48:23.630Z,36.28
2022-11-27T06:48:55.255Z,34.08
2022-11-27T06:49:26.850Z,37.65
2022-11-27T06:49:58.396Z,38.30
2022-11-27T06:50:30.186Z,37.33
2022-11-27T06:51:04.358Z,38.90
2022-11-27T06:51:35.970Z,39.50
2022-11-27T06:52:07.583Z,39.50
2022-11-27T06:52:40.802Z,38.13
2022-11-27T06:53:12.516Z,37.17
2022-11-27T06:53:44.846Z,37.33
2022-11-27T06:54:16.506Z,38.65
2022-11-27T06:54:48.158Z,38.03
2022-11-27T06:55:19.714Z,41.50
2022-11-27T06:55:51.320Z,38.90
2022-11-27T06:56:26.134Z,36.22
2022-11-27T06:56:58.513Z,35.63
2022-11-27T06:57:30.120Z,38.33
2022-11-27T06:58:01.687Z,36.72
2022-11-27T06:58:33.300Z,34.80
2022-11-27T06:59:04.914Z,36.55
2022-11-27T06:59:36.467Z,36.50
2022-11-27T07:00:08.720Z,34.63
2022-11-27T07:00:40.344Z,35.97
2022-11-27T07:01:17.516Z,40.10
2022-11-27T07:01:49.196Z,36.00
2022-11-27T07:02:20.807Z,34.63
2022-11-27T07:02:54.770Z,36.10
2022-11-27T07:03:27.111Z,37.72
2022-11-27T07:03:58.960Z,39.22
2022-11-27T07:04:30.578Z,33.97
2022-11-27T07:05:02.144Z,37.42
2022-11-27T07:05:33.814Z,37.38
2022-11-27T07:06:08.142Z,37.50
2022-11-27T07:06:40.494Z,36.38
2022-11-27T07:07:12.157Z,33.25
2022-11-27T07:07:44.140Z,39.63
2022-11-27T07:08:15.786Z,37.42
2022-11-27T07:08:47.773Z,33.30
2022-11-27T07:09:19.410Z,36.80
2022-11-27T07:09:50.961Z,36.45
2022-11-27T07:10:22.777Z,36.55
2022-11-27T07:10:54.374Z,34.70
2022-11-27T07:11:27.977Z,39.42
2022-11-27T07:11:59.562Z,36.42
2022-11-27T07:12:31.135Z,36.38
2022-11-27T07:13:03.098Z,38.25
2022-11-27T07:13:34.799Z,35.53
2022-11-27T07:14:06.722Z,34.05
2022-11-27T07:14:38.628Z,39.70
2022-11-27T07:15:10.491Z,37.80
2022-11-27T07:15:42.352Z,37.45
2022-11-27T07:16:14.992Z,39.22
2022-11-27T07:16:46.663Z,36.83
2022-11-27T07:17:18.343Z,38.25
2022-11-27T07:17:50.121Z,36.70
2022-11-27T07:18:21.662Z,33.88
2022-11-27T07:18:56.193Z,34.28
2022-11-27T07:19:27.790Z,36.28
2022-11-27T07:19:59.368Z,38.30
2022-11-27T07:20:30.941Z,35.15
2022-11-27T07:21:02.505Z,34.85